Terminal Aerodrome Forecast
Issued by NWS

Home | Current Version | Previous Version | Text Only | Print | Product List | Glossary Off
Versions: 1 2 3 4 5 6 7 8 9 10 11 12 13 14 15 16

000
FTUS43 KICT 031135
TAFHUT
TAF
KHUT 031135Z 0312/0412 18012KT P6SM SCT200
     FM031600 18018G25KT P6SM BKN100
     FM031900 18020G28KT P6SM FEW120
     FM040100 17012KT P6SM SCT150=

USA.gov is the U.S. government's official web portal to all federal, state and local government web resources and services.